Time;durP1;ratioP1;P1;durP2;ratioP2;P2;SDS_P1;SDS_P2;PMS_P1;PMS_P2;Temp;Humidity;BMP_temperature;BMP_pressure;BME280_temperature;BME280_humidity;BME280_pressure;Samples;Min_cycle;Max_cycle;Signal;HPM_P1;HPM_P2
2023/09/25 00:01:36;;;;;;;4.17;2.20;;;16.00;1.00;;;;;;5094297;28;20274;-81
2023/09/25 00:04:02;;;;;;;4.20;1.70;;;15.90;1.00;;;;;;5095882;28;20170;-83
2023/09/25 00:06:28;;;;;;;3.97;2.37;;;15.90;1.00;;;;;;5095631;28;20218;-80
2023/09/25 00:08:55;;;;;;;4.77;2.30;;;15.90;1.00;;;;;;5096866;28;20277;-82
2023/09/25 00:11:20;;;;;;;3.20;1.93;;;15.90;1.00;;;;;;5094354;28;20255;-80
2023/09/25 00:13:46;;;;;;;3.90;2.17;;;16.00;1.00;;;;;;5095184;28;20200;-82
2023/09/25 00:16:13;;;;;;;3.93;2.20;;;15.90;1.00;;;;;;5094878;28;20174;-81
2023/09/25 00:18:39;;;;;;;3.90;2.30;;;15.90;1.00;;;;;;5094519;28;20178;-81
2023/09/25 00:21:05;;;;;;;5.43;1.90;;;15.90;1.00;;;;;;5094557;28;20165;-80
2023/09/25 00:23:31;;;;;;;3.20;1.70;;;15.90;1.00;;;;;;5095952;28;20615;-80
2023/09/25 00:26:04;;;;;;;5.47;2.80;;;15.80;1.00;;;;;;5093032;28;20214;-82
2023/09/25 00:28:31;;;;;;;3.47;2.17;;;15.90;1.00;;;;;;5095386;28;20199;-83
2023/09/25 00:30:56;;;;;;;5.23;2.00;;;15.90;1.00;;;;;;5097242;28;20175;-80
2023/09/25 00:33:22;;;;;;;4.50;2.27;;;15.90;1.00;;;;;;5103658;28;20187;-80
2023/09/25 00:35:48;;;;;;;3.30;2.10;;;15.90;1.00;;;;;;5114484;28;20164;-82
2023/09/25 00:38:14;;;;;;;4.33;2.07;;;16.00;1.00;;;;;;5113283;28;20672;-82
2023/09/25 00:40:40;;;;;;;4.07;2.30;;;16.10;1.00;;;;;;5114739;28;20233;-82
2023/09/25 00:43:06;;;;;;;4.13;2.33;;;16.20;1.00;;;;;;5114038;28;20162;-82
2023/09/25 00:45:38;;;;;;;3.53;2.00;;;16.10;1.00;;;;;;5115573;28;20171;-80
2023/09/25 00:48:05;;;;;;;4.83;2.40;;;16.10;1.00;;;;;;5114718;28;20229;-81
2023/09/25 00:50:32;;;;;;;4.60;2.10;;;16.00;1.00;;;;;;5114646;28;20262;-82
2023/09/25 00:53:06;;;;;;;3.97;2.20;;;16.00;1.00;;;;;;5113728;28;20195;-81
2023/09/25 00:55:34;;;;;;;5.03;2.20;;;16.00;1.00;;;;;;5113841;28;20202;-81
2023/09/25 00:58:01;;;;;;;4.43;2.00;;;16.00;1.00;;;;;;5112445;28;20183;-81
2023/09/25 01:00:27;;;;;;;8.03;2.63;;;15.90;1.00;;;;;;5112806;28;20387;-82
2023/09/25 01:02:53;;;;;;;6.93;2.53;;;15.70;1.00;;;;;;5115008;28;20646;-81
2023/09/25 01:05:19;;;;;;;3.43;2.10;;;15.70;1.00;;;;;;5114864;28;20171;-81
2023/09/25 01:07:45;;;;;;;3.90;2.17;;;15.70;1.00;;;;;;5112298;28;20690;-80
2023/09/25 01:10:15;;;;;;;5.63;2.63;;;15.70;1.00;;;;;;5113346;28;20170;-80
2023/09/25 01:12:44;;;;;;;7.97;3.10;;;15.80;1.00;;;;;;5114511;28;20221;-82
2023/09/25 01:15:10;;;;;;;4.90;2.30;;;15.80;1.00;;;;;;5113257;28;20179;-83
2023/09/25 01:17:36;;;;;;;4.47;2.60;;;15.80;1.00;;;;;;5112549;28;20186;-81
2023/09/25 01:20:13;;;;;;;3.90;2.30;;;15.70;1.00;;;;;;5115158;28;20168;-82
2023/09/25 01:22:49;;;;;;;3.43;2.10;;;15.70;1.00;;;;;;5112190;28;20220;-82
2023/09/25 01:25:16;;;;;;;4.03;2.33;;;15.80;1.00;;;;;;5113248;28;20204;-81
2023/09/25 01:27:43;;;;;;;5.63;2.67;;;15.80;1.00;;;;;;5111895;28;20175;-81
2023/09/25 01:30:10;;;;;;;3.97;2.30;;;15.70;1.00;;;;;;5114974;28;20213;-82
2023/09/25 01:32:38;;;;;;;4.83;2.47;;;15.70;1.00;;;;;;5114509;28;20167;-82
2023/09/25 01:35:13;;;;;;;3.63;2.33;;;15.70;1.00;;;;;;5112506;28;20209;-81
2023/09/25 01:37:40;;;;;;;6.00;2.43;;;15.70;1.00;;;;;;5113117;28;20169;-81
2023/09/25 01:40:11;;;;;;;4.90;2.77;;;15.70;1.00;;;;;;5113108;28;20182;-81
2023/09/25 01:42:37;;;;;;;4.17;2.47;;;15.60;1.00;;;;;;5112469;28;20704;-82
2023/09/25 01:45:03;;;;;;;4.47;2.43;;;15.50;1.00;;;;;;5113972;28;20220;-82
2023/09/25 01:47:29;;;;;;;4.30;2.30;;;15.40;1.00;;;;;;5117631;28;20180;-80
2023/09/25 01:49:55;;;;;;;3.70;2.33;;;15.40;1.00;;;;;;5118629;28;20171;-81
2023/09/25 01:52:20;;;;;;;4.10;2.33;;;15.30;1.00;;;;;;5116462;28;20555;-81
2023/09/25 01:54:46;;;;;;;3.47;2.27;;;15.30;1.00;;;;;;5117096;28;20174;-81
2023/09/25 01:57:12;;;;;;;4.50;2.50;;;15.20;1.00;;;;;;5117099;28;20173;-79
2023/09/25 01:59:37;;;;;;;5.13;2.70;;;15.30;1.00;;;;;;5116702;28;20204;-80
2023/09/25 02:02:03;;;;;;;4.50;2.40;;;15.30;1.00;;;;;;5117006;28;20719;-79
2023/09/25 02:04:29;;;;;;;4.73;2.53;;;15.20;1.00;;;;;;5117076;28;20216;-79
2023/09/25 02:06:54;;;;;;;4.63;2.17;;;15.30;1.00;;;;;;5116968;28;20581;-81
2023/09/25 02:09:20;;;;;;;4.67;2.70;;;15.30;1.00;;;;;;5116020;28;20743;-82
2023/09/25 02:11:46;;;;;;;4.33;2.43;;;15.30;1.00;;;;;;5116417;28;20187;-81
2023/09/25 02:14:12;;;;;;;5.13;2.50;;;15.30;1.00;;;;;;5116829;28;20635;-79
2023/09/25 02:16:37;;;;;;;4.03;2.00;;;15.30;1.00;;;;;;5116477;28;20588;-81
2023/09/25 02:19:03;;;;;;;4.97;2.43;;;15.40;1.00;;;;;;5116980;28;20623;-82
2023/09/25 02:21:29;;;;;;;4.90;2.60;;;15.40;1.00;;;;;;5115885;28;20608;-81
2023/09/25 02:23:55;;;;;;;4.17;2.20;;;15.40;1.00;;;;;;5117150;28;20180;-82
2023/09/25 02:26:20;;;;;;;4.77;2.30;;;15.40;1.00;;;;;;5113259;28;20179;-80
2023/09/25 02:28:46;;;;;;;4.47;1.80;;;15.30;1.00;;;;;;5116432;28;20203;-81
2023/09/25 02:31:13;;;;;;;4.97;2.23;;;15.30;1.00;;;;;;5114809;28;20635;-81
2023/09/25 02:33:39;;;;;;;4.27;2.37;;;15.30;1.00;;;;;;5114626;28;20200;-81
2023/09/25 02:36:06;;;;;;;4.00;2.50;;;15.20;1.00;;;;;;5115437;28;20629;-81
2023/09/25 02:38:32;;;;;;;5.27;2.57;;;15.20;1.00;;;;;;5115767;28;20657;-81
2023/09/25 02:40:58;;;;;;;6.13;2.20;;;15.30;1.00;;;;;;5116682;28;20171;-81
2023/09/25 02:43:23;;;;;;;4.23;2.30;;;15.30;1.00;;;;;;5116529;28;20167;-80
2023/09/25 02:45:50;;;;;;;4.07;2.17;;;15.20;1.00;;;;;;5116063;28;20167;-81
2023/09/25 02:48:16;;;;;;;4.57;2.30;;;15.20;1.00;;;;;;5115285;28;20252;-80
2023/09/25 02:50:42;;;;;;;5.73;2.50;;;15.20;1.00;;;;;;5114112;28;20171;-80
2023/09/25 02:53:07;;;;;;;3.40;2.17;;;15.30;1.00;;;;;;5113406;28;20195;-79
2023/09/25 02:55:34;;;;;;;4.73;2.40;;;15.30;1.00;;;;;;5116271;28;20907;-81
2023/09/25 02:57:59;;;;;;;5.57;2.23;;;15.30;1.00;;;;;;5115096;28;20179;-81
2023/09/25 03:00:26;;;;;;;4.97;2.50;;;15.20;1.00;;;;;;5114849;28;20205;-81
2023/09/25 03:02:52;;;;;;;4.70;2.40;;;15.20;1.00;;;;;;5116501;28;20254;-81
2023/09/25 03:05:19;;;;;;;3.27;2.00;;;15.20;1.00;;;;;;5116084;28;20169;-81
2023/09/25 03:07:45;;;;;;;3.37;1.97;;;15.20;1.00;;;;;;5114941;28;20170;-81
2023/09/25 03:10:11;;;;;;;4.50;2.10;;;15.20;1.00;;;;;;5115083;28;20179;-81
2023/09/25 03:12:37;;;;;;;3.27;1.90;;;15.20;1.00;;;;;;5116412;28;20292;-80
2023/09/25 03:15:07;;;;;;;2.77;1.70;;;15.20;1.00;;;;;;5117233;28;20163;-81
2023/09/25 03:17:35;;;;;;;3.17;1.90;;;15.20;1.00;;;;;;5115172;28;20194;-82
2023/09/25 03:20:12;;;;;;;5.33;2.10;;;15.20;1.00;;;;;;5114656;28;20195;-81
2023/09/25 03:22:38;;;;;;;4.30;2.30;;;15.20;1.00;;;;;;5116028;28;20166;-81
2023/09/25 03:25:05;;;;;;;3.43;2.10;;;15.20;1.00;;;;;;5114924;28;20669;-82
2023/09/25 03:27:31;;;;;;;5.30;1.90;;;15.20;1.00;;;;;;5115957;28;20175;-82
2023/09/25 03:29:56;;;;;;;3.53;2.00;;;15.20;1.00;;;;;;5118990;28;20224;-79
2023/09/25 03:32:22;;;;;;;8.97;2.27;;;15.30;1.00;;;;;;5116708;28;20249;-80
2023/09/25 03:34:48;;;;;;;4.47;1.80;;;15.30;1.00;;;;;;5115448;28;20666;-82
2023/09/25 03:37:13;;;;;;;3.77;2.27;;;15.20;1.00;;;;;;5118218;28;20163;-80
2023/09/25 03:39:40;;;;;;;5.47;2.20;;;15.30;1.00;;;;;;5118399;28;20572;-79
2023/09/25 03:42:06;;;;;;;4.13;2.13;;;15.20;1.00;;;;;;5118480;28;20251;-81
2023/09/25 03:44:31;;;;;;;5.03;2.60;;;15.20;1.00;;;;;;5118987;28;20172;-80
2023/09/25 03:46:57;;;;;;;4.80;2.37;;;15.20;1.00;;;;;;5120010;28;20639;-81
2023/09/25 03:49:23;;;;;;;5.50;2.50;;;15.20;1.00;;;;;;5119495;28;20746;-81
2023/09/25 03:51:48;;;;;;;4.37;2.47;;;15.20;1.00;;;;;;5119274;28;20167;-81
2023/09/25 03:54:15;;;;;;;5.43;2.07;;;15.10;1.00;;;;;;5116755;28;20532;-81
2023/09/25 03:56:40;;;;;;;4.33;2.20;;;15.10;1.00;;;;;;5118896;28;20204;-80
2023/09/25 03:59:06;;;;;;;4.07;2.10;;;15.10;1.00;;;;;;5115862;28;20171;-82
2023/09/25 04:01:32;;;;;;;3.20;1.87;;;15.10;1.00;;;;;;5114380;28;20182;-81
2023/09/25 04:03:57;;;;;;;5.83;2.53;;;15.10;1.00;;;;;;5115975;28;20190;-82
2023/09/25 04:06:24;;;;;;;4.03;2.10;;;15.10;1.00;;;;;;5113645;28;20181;-81
2023/09/25 04:08:50;;;;;;;3.00;1.97;;;15.10;1.00;;;;;;5113165;28;20222;-82
2023/09/25 04:11:16;;;;;;;3.97;2.37;;;15.10;1.00;;;;;;5115021;28;20163;-81
2023/09/25 04:13:41;;;;;;;3.97;2.00;;;15.20;1.00;;;;;;5114974;28;20665;-81
2023/09/25 04:16:12;;;;;;;5.20;2.50;;;15.20;1.00;;;;;;5114959;28;20645;-81
2023/09/25 04:18:39;;;;;;;3.97;2.50;;;15.20;1.00;;;;;;5115693;28;20178;-81
2023/09/25 04:21:06;;;;;;;5.37;3.00;;;15.10;1.00;;;;;;5114345;28;20175;-80
2023/09/25 04:23:32;;;;;;;6.37;2.60;;;15.10;1.00;;;;;;5116108;28;20178;-81
2023/09/25 04:26:00;;;;;;;4.67;2.73;;;15.00;1.00;;;;;;5115301;28;20179;-81
2023/09/25 04:28:32;;;;;;;6.10;2.60;;;15.00;1.00;;;;;;5114100;28;20313;-81
2023/09/25 04:31:04;;;;;;;5.40;2.80;;;15.10;1.00;;;;;;5115708;28;20174;-81
2023/09/25 04:33:32;;;;;;;5.23;2.73;;;15.10;1.00;;;;;;5115195;28;20186;-81
2023/09/25 04:36:01;;;;;;;4.43;2.03;;;15.10;1.00;;;;;;5113887;28;20538;-80
2023/09/25 04:38:32;;;;;;;5.67;2.80;;;15.10;1.00;;;;;;5115700;28;20194;-80
2023/09/25 04:40:58;;;;;;;3.83;2.53;;;15.10;1.00;;;;;;5115841;28;20530;-81
2023/09/25 04:43:24;;;;;;;5.53;2.40;;;15.10;1.00;;;;;;5113742;28;20163;-82
2023/09/25 04:45:54;;;;;;;4.30;2.57;;;15.10;1.00;;;;;;5115309;28;20649;-81
2023/09/25 04:48:21;;;;;;;3.90;2.43;;;15.10;1.00;;;;;;5115161;28;20193;-80
2023/09/25 04:50:47;;;;;;;5.40;2.80;;;15.00;1.00;;;;;;5116063;28;20177;-81
2023/09/25 04:53:13;;;;;;;5.83;2.80;;;15.00;1.00;;;;;;5114947;28;20203;-81
2023/09/25 04:55:39;;;;;;;4.87;2.53;;;15.00;1.00;;;;;;5115981;28;20533;-80
2023/09/25 04:58:05;;;;;;;5.63;2.73;;;14.90;1.00;;;;;;5113257;28;20269;-81
2023/09/25 05:00:32;;;;;;;5.80;2.70;;;14.90;1.00;;;;;;5114186;28;20175;-80
2023/09/25 05:02:58;;;;;;;4.70;2.73;;;14.90;1.00;;;;;;5115308;28;20163;-83
2023/09/25 05:05:26;;;;;;;6.17;2.50;;;14.90;1.00;;;;;;5115098;28;20174;-81
2023/09/25 05:07:53;;;;;;;5.43;2.80;;;14.90;1.00;;;;;;5114927;28;20267;-81
2023/09/25 05:10:25;;;;;;;5.50;2.90;;;15.00;1.00;;;;;;5112025;28;20171;-81
2023/09/25 05:12:51;;;;;;;6.17;2.70;;;15.00;1.00;;;;;;5113870;28;20170;-80
2023/09/25 05:15:18;;;;;;;5.57;2.83;;;14.90;1.00;;;;;;5112750;28;20546;-81
2023/09/25 05:17:45;;;;;;;4.13;2.67;;;14.90;1.00;;;;;;5112544;28;20175;-81
2023/09/25 05:20:15;;;;;;;5.90;3.00;;;14.90;1.00;;;;;;5112450;28;20277;-81
2023/09/25 05:22:45;;;;;;;4.83;2.97;;;14.90;1.00;;;;;;5113310;28;20251;-81
2023/09/25 05:25:12;;;;;;;5.33;2.57;;;14.90;1.00;;;;;;5113304;28;20183;-82
2023/09/25 05:27:40;;;;;;;7.13;2.90;;;14.90;1.00;;;;;;5113358;28;20190;-82
2023/09/25 05:30:09;;;;;;;5.50;3.00;;;14.90;1.00;;;;;;5113493;28;20182;-82
2023/09/25 05:32:36;;;;;;;5.17;2.60;;;14.90;1.00;;;;;;5094544;28;20177;-83
2023/09/25 05:35:03;;;;;;;4.80;2.40;;;14.90;1.00;;;;;;5094021;28;20317;-81
2023/09/25 05:37:28;;;;;;;4.60;2.20;;;14.90;1.00;;;;;;5094111;28;20183;-82
2023/09/25 05:39:54;;;;;;;4.17;2.40;;;14.90;1.00;;;;;;5092742;28;20171;-81
2023/09/25 05:42:20;;;;;;;5.60;2.53;;;14.90;1.00;;;;;;5104199;28;20186;-81
2023/09/25 05:44:49;;;;;;;6.03;2.60;;;14.90;1.00;;;;;;5113590;28;20175;-83
2023/09/25 05:47:14;;;;;;;4.70;2.37;;;14.90;1.00;;;;;;5113563;28;20166;-83
2023/09/25 05:49:41;;;;;;;5.17;2.50;;;14.90;1.00;;;;;;5113814;28;20221;-79
2023/09/25 05:52:07;;;;;;;4.17;2.23;;;14.90;1.00;;;;;;5114720;28;20166;-82
2023/09/25 05:54:33;;;;;;;4.70;2.57;;;14.90;1.00;;;;;;5113127;28;20175;-84
2023/09/25 05:56:59;;;;;;;4.57;2.37;;;15.00;1.00;;;;;;5110436;28;20253;-82
2023/09/25 05:59:25;;;;;;;5.60;2.33;;;15.00;1.00;;;;;;5113891;28;20178;-83
2023/09/25 06:01:50;;;;;;;4.67;2.30;;;15.00;1.00;;;;;;5112953;28;20178;-80
2023/09/25 06:04:17;;;;;;;4.10;2.47;;;15.00;1.00;;;;;;5114687;28;20191;-82
2023/09/25 06:06:46;;;;;;;5.80;2.43;;;15.00;1.00;;;;;;5112951;28;20250;-83
2023/09/25 06:09:15;;;;;;;5.33;2.30;;;15.00;1.00;;;;;;5116844;28;20294;-82
2023/09/25 06:11:42;;;;;;;3.90;2.17;;;15.00;1.00;;;;;;5114416;28;20167;-80
2023/09/25 06:14:12;;;;;;;4.33;2.00;;;15.10;1.00;;;;;;5110775;28;20176;-82
2023/09/25 06:16:39;;;;;;;5.07;2.60;;;15.10;1.00;;;;;;5108027;28;20175;-81
2023/09/25 06:19:05;;;;;;;4.60;2.37;;;15.10;1.00;;;;;;5102497;28;20155;-82
2023/09/25 06:21:32;;;;;;;5.63;2.50;;;15.10;1.00;;;;;;5093513;28;20172;-81
2023/09/25 06:23:58;;;;;;;7.53;2.50;;;15.20;1.00;;;;;;5091284;28;20571;-81
2023/09/25 06:26:28;;;;;;;6.73;2.37;;;15.20;1.00;;;;;;5095357;28;20164;-82
2023/09/25 06:28:54;;;;;;;5.47;2.43;;;15.20;1.00;;;;;;5093186;28;20264;-81
2023/09/25 06:31:24;;;;;;;4.37;2.80;;;15.30;1.00;;;;;;5093304;28;20386;-82
2023/09/25 06:33:50;;;;;;;5.57;2.37;;;15.40;1.00;;;;;;5097104;28;20247;-80
2023/09/25 06:36:16;;;;;;;5.30;2.67;;;15.40;1.00;;;;;;5095564;28;20167;-82
2023/09/25 06:38:41;;;;;;;3.80;2.17;;;15.50;1.00;;;;;;5095553;28;20577;-81
2023/09/25 06:41:11;;;;;;;4.67;2.40;;;15.50;1.00;;;;;;5095334;28;20175;-82
2023/09/25 06:43:37;;;;;;;4.83;2.27;;;15.50;1.00;;;;;;5097007;28;20627;-80
2023/09/25 06:46:03;;;;;;;7.13;2.60;;;15.70;1.00;;;;;;5097115;28;20167;-82
2023/09/25 06:48:29;;;;;;;6.47;2.90;;;15.70;1.00;;;;;;5098650;28;20199;-82
2023/09/25 06:50:55;;;;;;;6.50;2.70;;;15.50;1.00;;;;;;5109153;28;20269;-81
2023/09/25 06:53:20;;;;;;;3.57;2.23;;;15.70;1.00;;;;;;5106233;28;20291;-81
2023/09/25 06:55:47;;;;;;;6.43;2.50;;;15.70;1.00;;;;;;5115847;28;20177;-81
2023/09/25 06:58:12;;;;;;;5.87;2.63;;;15.80;1.00;;;;;;5113066;28;20255;-81
2023/09/25 07:00:39;;;;;;;5.17;2.23;;;15.80;1.00;;;;;;5097487;28;20249;-81
2023/09/25 07:03:04;;;;;;;4.07;2.37;;;15.80;1.00;;;;;;5099899;27;20175;-82
2023/09/25 07:05:30;;;;;;;4.70;2.60;;;15.80;1.00;;;;;;5116144;28;20173;-79
2023/09/25 07:07:58;;;;;;;5.13;2.63;;;15.80;1.00;;;;;;5116893;28;20759;-80
2023/09/25 07:10:23;;;;;;;6.40;2.63;;;15.90;1.00;;;;;;5116821;28;20229;-79
2023/09/25 07:12:49;;;;;;;4.10;2.20;;;16.00;1.00;;;;;;5118132;28;20529;-82
2023/09/25 07:15:15;;;;;;;6.30;2.60;;;16.10;1.00;;;;;;5117695;28;20174;-82
2023/09/25 07:17:41;;;;;;;5.13;2.57;;;16.10;1.00;;;;;;5114183;28;20168;-81
2023/09/25 07:20:07;;;;;;;4.40;2.33;;;16.10;1.00;;;;;;5116683;28;20167;-82
2023/09/25 07:22:33;;;;;;;5.90;2.50;;;16.30;1.00;;;;;;5116133;28;20173;-81
2023/09/25 07:24:59;;;;;;;7.07;2.50;;;16.40;1.00;;;;;;5117551;28;20705;-81
2023/09/25 07:27:27;;;;;;;5.77;2.60;;;16.40;1.00;;;;;;5116343;28;20167;-82
2023/09/25 07:29:53;;;;;;;5.50;2.40;;;16.40;1.00;;;;;;5116780;28;20215;-82
2023/09/25 07:32:19;;;;;;;4.97;2.17;;;16.60;1.00;;;;;;5115235;28;20175;-80
2023/09/25 07:34:45;;;;;;;4.27;2.43;;;16.60;1.00;;;;;;5113707;28;20187;-81
2023/09/25 07:37:12;;;;;;;4.93;2.33;;;16.50;1.00;;;;;;5114827;28;20197;-81
2023/09/25 07:39:40;;;;;;;4.23;2.10;;;16.60;1.00;;;;;;5114920;28;20170;-82
2023/09/25 07:42:06;;;;;;;4.30;2.20;;;16.70;1.00;;;;;;5114731;28;20613;-81
2023/09/25 07:44:34;;;;;;;3.73;2.13;;;16.80;1.00;;;;;;5114097;28;20255;-81
2023/09/25 07:47:06;;;;;;;5.53;2.20;;;16.90;1.00;;;;;;5114740;28;20198;-81
2023/09/25 07:49:38;;;;;;;5.27;2.07;;;17.00;1.00;;;;;;5115663;28;20199;-83
2023/09/25 07:52:10;;;;;;;4.73;2.30;;;17.00;1.00;;;;;;5114382;28;20641;-81
2023/09/25 07:54:37;;;;;;;4.93;2.30;;;17.10;1.00;;;;;;5113824;28;20182;-81
2023/09/25 07:57:02;;;;;;;4.37;1.97;;;17.20;1.00;;;;;;5113109;28;20201;-81
2023/09/25 07:59:28;;;;;;;5.70;1.97;;;17.50;1.00;;;;;;5114260;28;20265;-83
2023/09/25 08:01:55;;;;;;;5.77;2.03;;;17.50;1.00;;;;;;5114410;28;20328;-81
2023/09/25 08:04:21;;;;;;;5.67;2.03;;;17.60;1.00;;;;;;5120305;28;20532;-81
2023/09/25 08:06:46;;;;;;;5.80;2.23;;;17.70;1.00;;;;;;5112628;28;20618;-82
2023/09/25 08:09:13;;;;;;;5.63;2.13;;;17.80;1.00;;;;;;5112029;28;20663;-82
2023/09/25 08:11:39;;;;;;;5.30;2.27;;;17.70;1.00;;;;;;5114501;28;20655;-80
2023/09/25 08:14:05;;;;;;;4.27;2.00;;;17.80;1.00;;;;;;5118781;28;20172;-81
2023/09/25 08:16:31;;;;;;;4.60;1.87;;;17.90;1.00;;;;;;5114614;28;20187;-79
2023/09/25 08:18:57;;;;;;;5.27;2.27;;;18.10;1.00;;;;;;5113498;28;20179;-82
2023/09/25 08:21:24;;;;;;;4.20;1.80;;;18.20;1.00;;;;;;5112863;28;20163;-80
2023/09/25 08:23:50;;;;;;;3.60;1.83;;;18.20;1.00;;;;;;5113375;28;20182;-78
2023/09/25 08:26:16;;;;;;;7.67;2.00;;;18.30;1.00;;;;;;5114020;28;20180;-81
2023/09/25 08:28:42;;;;;;;4.87;1.93;;;18.40;1.00;;;;;;5115087;28;20206;-82
2023/09/25 08:31:08;;;;;;;4.63;1.90;;;18.40;1.00;;;;;;5115290;28;20212;-81
2023/09/25 08:33:33;;;;;;;4.70;1.70;;;18.30;1.00;;;;;;5112074;28;20296;-82
2023/09/25 08:35:59;;;;;;;4.30;2.27;;;18.30;1.00;;;;;;5104046;28;20182;-81
2023/09/25 08:38:25;;;;;;;5.83;2.90;;;18.40;1.00;;;;;;5094728;28;20226;-82
2023/09/25 08:40:50;;;;;;;4.23;1.80;;;18.50;1.00;;;;;;5094397;28;20167;-82
2023/09/25 08:43:31;;;;;;;6.73;2.37;;;18.60;1.00;;;;;;5153552;27;21138;-82
2023/09/25 08:45:57;;;;;;;6.13;2.00;;;18.70;1.00;;;;;;5152389;27;20218;-81
2023/09/25 08:48:23;;;;;;;8.37;2.07;;;18.70;1.00;;;;;;5150841;27;20188;-81
2023/09/25 08:50:50;;;;;;;5.43;2.20;;;18.70;1.00;;;;;;5153032;27;20168;-81
2023/09/25 08:53:16;;;;;;;3.63;1.73;;;18.70;1.00;;;;;;5154703;27;20188;-81
2023/09/25 08:55:43;;;;;;;4.40;2.07;;;18.90;1.00;;;;;;5152384;27;20193;-82
2023/09/25 08:58:09;;;;;;;3.87;1.83;;;18.90;1.00;;;;;;5152591;27;20169;-82
2023/09/25 09:00:35;;;;;;;6.63;2.47;;;19.00;1.00;;;;;;5153300;27;20218;-82
2023/09/25 09:03:01;;;;;;;6.47;2.10;;;19.10;1.00;;;;;;5151132;27;20205;-82
2023/09/25 09:05:28;;;;;;;5.10;2.33;;;19.20;1.00;;;;;;5151023;27;20212;-82
2023/09/25 09:08:02;;;;;;;4.83;2.30;;;19.30;1.00;;;;;;5152105;27;20167;-82
2023/09/25 09:10:31;;;;;;;4.73;2.00;;;19.30;1.00;;;;;;5151583;27;20578;-82
2023/09/25 09:12:58;;;;;;;5.63;2.00;;;19.40;1.00;;;;;;5153332;27;20170;-82
2023/09/25 09:15:29;;;;;;;5.63;3.43;;;19.60;1.00;;;;;;5152964;27;20167;-83
2023/09/25 09:17:56;;;;;;;5.43;2.33;;;19.70;1.00;;;;;;5151813;27;20629;-82
2023/09/25 09:20:36;;;;;;;3.07;1.70;;;19.70;1.00;;;;;;5152019;27;20160;-82
2023/09/25 09:23:02;;;;;;;4.03;2.00;;;20.00;1.00;;;;;;5151794;27;20253;-81
2023/09/25 09:25:29;;;;;;;5.83;2.13;;;20.10;1.00;;;;;;5150467;27;20257;-82
2023/09/25 09:27:59;;;;;;;3.63;1.70;;;20.10;1.00;;;;;;5150902;27;20525;-83
2023/09/25 09:30:25;;;;;;;4.13;1.97;;;20.10;1.00;;;;;;5150297;27;20231;-81
2023/09/25 09:32:52;;;;;;;3.50;1.50;;;20.10;1.00;;;;;;5150203;27;20195;-82
2023/09/25 09:35:24;;;;;;;2.90;1.70;;;20.20;1.00;;;;;;5150418;27;20209;-82
2023/09/25 09:37:57;;;;;;;4.87;1.73;;;20.10;1.00;;;;;;5150947;27;20163;-82
2023/09/25 09:40:24;;;;;;;4.00;1.70;;;20.10;1.00;;;;;;5151125;27;20645;-82
2023/09/25 09:42:51;;;;;;;4.83;1.93;;;20.10;1.00;;;;;;5150294;27;20226;-81
2023/09/25 09:45:18;;;;;;;4.10;2.00;;;20.10;1.00;;;;;;5148972;27;20222;-82
2023/09/25 09:47:46;;;;;;;5.00;3.07;;;20.20;1.00;;;;;;5151375;27;20580;-80
2023/09/25 09:50:13;;;;;;;6.23;2.87;;;20.40;1.00;;;;;;5150594;27;20494;-81
2023/09/25 09:52:40;;;;;;;17.80;7.23;;;20.50;1.00;;;;;;5150808;27;20233;-80
2023/09/25 09:55:12;;;;;;;8.03;3.10;;;20.70;1.00;;;;;;5135477;27;20180;-82
2023/09/25 09:57:39;;;;;;;4.43;1.90;;;20.80;99.90;;;;;;5137090;27;20187;-82
2023/09/25 10:00:07;;;;;;;3.73;1.83;;;20.70;99.90;;;;;;5135956;27;20539;-81
2023/09/25 10:02:34;;;;;;;6.33;1.90;;;20.70;99.90;;;;;;5138661;27;20201;-81
2023/09/25 10:05:02;;;;;;;6.07;2.80;;;20.80;99.90;;;;;;5138150;27;20176;-82
2023/09/25 10:07:29;;;;;;;3.43;1.83;;;20.80;99.90;;;;;;5137269;27;20277;-82
2023/09/25 10:10:05;;;;;;;6.23;1.90;;;20.90;99.90;;;;;;5137711;27;20167;-82
2023/09/25 10:12:50;;;;;;;5.20;2.27;;;21.00;99.90;;;;;;5138220;27;20202;-81
2023/09/25 10:15:22;;;;;;;6.37;2.23;;;21.00;99.90;;;;;;5137685;27;20165;-80
2023/09/25 10:17:49;;;;;;;5.67;2.50;;;20.90;99.90;;;;;;5136715;27;20685;-82
2023/09/25 10:20:34;;;;;;;5.37;2.00;;;21.10;99.90;;;;;;5136349;27;20242;-80
2023/09/25 10:23:06;;;;;;;3.20;1.73;;;21.30;99.90;;;;;;5135280;27;20215;-80
2023/09/25 10:25:52;;;;;;;4.07;1.80;;;21.30;99.90;;;;;;5135348;27;20409;-82
2023/09/25 10:28:24;;;;;;;4.47;2.07;;;21.30;99.90;;;;;;5137447;27;20177;-82
2023/09/25 10:30:50;;;;;;;3.40;1.93;;;21.30;99.90;;;;;;5137042;27;20165;-81
2023/09/25 10:33:17;;;;;;;5.80;3.47;;;21.50;99.90;;;;;;5136911;27;20184;-82
2023/09/25 10:35:48;;;;;;;3.97;1.67;;;21.70;99.90;;;;;;5134465;27;20301;-81
2023/09/25 10:38:26;;;;;;;3.40;1.80;;;21.60;80.90;;;;;;5137241;27;20252;-83
2023/09/25 10:40:54;;;;;;;4.03;2.00;;;21.70;1.00;;;;;;5136343;27;20181;-83
2023/09/25 10:43:24;;;;;;;4.30;2.20;;;21.80;1.00;;;;;;5135717;27;20225;-81
2023/09/25 10:45:53;;;;;;;5.77;2.70;;;21.70;1.00;;;;;;5136212;27;20625;-82
2023/09/25 10:48:20;;;;;;;4.10;1.97;;;21.60;99.60;;;;;;5136104;27;20180;-83
2023/09/25 10:50:49;;;;;;;5.03;2.57;;;21.70;14.20;;;;;;5136865;27;20158;-81
2023/09/25 10:53:15;;;;;;;4.27;1.87;;;21.80;2.80;;;;;;5135945;27;20190;-81
2023/09/25 10:55:40;;;;;;;6.70;2.07;;;21.90;1.00;;;;;;5136787;27;20694;-81
2023/09/25 10:58:07;;;;;;;5.80;1.93;;;21.90;1.00;;;;;;5143387;27;20193;-81
2023/09/25 11:00:36;;;;;;;4.03;2.20;;;22.00;1.00;;;;;;5136739;27;20174;-81
2023/09/25 11:03:03;;;;;;;8.77;4.53;;;22.00;1.00;;;;;;5139250;27;20216;-81
2023/09/25 11:05:30;;;;;;;7.10;2.40;;;22.20;1.00;;;;;;5134652;27;20174;-82
2023/09/25 11:07:56;;;;;;;4.87;1.97;;;22.40;1.00;;;;;;5135670;27;20174;-81
2023/09/25 11:10:36;;;;;;;3.93;2.30;;;22.60;1.00;;;;;;5136997;27;20181;-82
2023/09/25 11:13:03;;;;;;;6.40;2.30;;;22.70;99.90;;;;;;5138063;27;20178;-83
2023/09/25 11:15:36;;;;;;;4.47;2.40;;;22.50;1.00;;;;;;5135609;27;20182;-83
2023/09/25 11:18:02;;;;;;;5.13;2.33;;;22.50;1.00;;;;;;5137963;27;20170;-81
2023/09/25 11:20:32;;;;;;;4.30;2.10;;;22.50;1.00;;;;;;5136863;27;20177;-83
2023/09/25 11:23:10;;;;;;;6.40;1.93;;;22.70;1.00;;;;;;5137886;27;20577;-83
2023/09/25 11:25:53;;;;;;;4.80;2.10;;;22.90;99.90;;;;;;5137267;27;20169;-84
2023/09/25 11:28:21;;;;;;;5.50;2.30;;;22.80;1.00;;;;;;5125937;27;20197;-83
2023/09/25 11:30:47;;;;;;;5.23;2.23;;;22.70;99.90;;;;;;5137890;27;20170;-83
2023/09/25 11:33:18;;;;;;;3.77;2.10;;;22.60;1.00;;;;;;5133033;27;20528;-82
2023/09/25 11:35:51;;;;;;;3.80;1.97;;;22.80;1.00;;;;;;5134478;27;20178;-83
2023/09/25 11:38:21;;;;;;;3.33;1.80;;;22.90;1.00;;;;;;5131494;27;20185;-82
2023/09/25 11:40:50;;;;;;;4.37;2.10;;;22.70;79.20;;;;;;5132786;27;20179;-82
2023/09/25 11:43:16;;;;;;;5.50;2.13;;;23.00;1.00;;;;;;5135190;27;20233;-83
2023/09/25 11:45:42;;;;;;;5.40;1.83;;;23.10;99.90;;;;;;5133391;27;20178;-84
2023/09/25 11:48:10;;;;;;;4.60;1.87;;;23.00;1.00;;;;;;5133872;27;20182;-84
2023/09/25 11:50:35;;;;;;;5.73;2.10;;;22.80;1.00;;;;;;5133959;27;20226;-84
2023/09/25 11:53:01;;;;;;;6.40;2.20;;;22.80;1.00;;;;;;5136629;27;20288;-80
2023/09/25 11:55:28;;;;;;;3.70;2.10;;;23.00;1.00;;;;;;5138604;27;20162;-81
2023/09/25 11:57:54;;;;;;;3.40;2.13;;;23.10;88.70;;;;;;5135581;27;20269;-81
2023/09/25 12:00:22;;;;;;;8.40;2.40;;;23.20;1.00;;;;;;5137868;27;20208;-81
2023/09/25 12:02:49;;;;;;;4.07;2.27;;;23.20;99.90;;;;;;5138924;27;20320;-83
2023/09/25 12:05:18;;;;;;;5.50;2.00;;;23.00;39.60;;;;;;5139652;27;20177;-84
2023/09/25 12:07:44;;;;;;;3.67;2.03;;;22.90;1.00;;;;;;5132037;27;20185;-83
2023/09/25 12:10:16;;;;;;;4.60;2.23;;;22.80;1.00;;;;;;5132085;27;20177;-80
2023/09/25 12:12:44;;;;;;;5.90;2.60;;;22.50;99.90;;;;;;5131944;27;20645;-82
2023/09/25 12:15:12;;;;;;;3.50;2.27;;;22.60;99.90;;;;;;5129693;27;20173;-82
2023/09/25 12:17:38;;;;;;;4.07;2.30;;;22.50;99.90;;;;;;5130929;27;20679;-81
2023/09/25 12:20:13;;;;;;;5.13;2.73;;;22.60;99.90;;;;;;5131298;27;20184;-80
2023/09/25 12:22:41;;;;;;;7.23;3.03;;;22.60;1.00;;;;;;5131047;27;20594;-82
2023/09/25 12:25:11;;;;;;;5.10;2.40;;;22.80;1.00;;;;;;5130836;27;20507;-82
2023/09/25 12:27:41;;;;;;;5.10;2.90;;;22.80;1.00;;;;;;5130019;27;20173;-82
2023/09/25 12:30:10;;;;;;;6.33;2.50;;;22.70;1.00;;;;;;5129984;27;20174;-84
2023/09/25 12:32:37;;;;;;;5.33;2.40;;;22.80;1.00;;;;;;5131412;27;20177;-83
2023/09/25 12:35:04;;;;;;;5.07;2.27;;;22.90;16.20;;;;;;5131502;27;20177;-82
2023/09/25 12:37:30;;;;;;;4.43;2.43;;;22.90;3.60;;;;;;5131749;27;20188;-84
2023/09/25 12:39:56;;;;;;;5.40;2.40;;;23.00;99.90;;;;;;5131831;27;20174;-84
2023/09/25 12:42:21;;;;;;;5.17;2.73;;;23.30;1.00;;;;;;5130710;27;20209;-82
2023/09/25 12:44:47;;;;;;;4.57;2.70;;;23.50;99.90;;;;;;5130176;28;20181;-82
2023/09/25 12:47:14;;;;;;;5.77;2.70;;;23.70;99.90;;;;;;5131899;27;20208;-82
2023/09/25 12:49:40;;;;;;;5.87;2.40;;;23.80;1.00;;;;;;5130544;28;20170;-81
2023/09/25 12:52:06;;;;;;;4.37;2.43;;;24.00;1.00;;;;;;5131811;28;20178;-81
2023/09/25 12:54:32;;;;;;;5.47;2.43;;;24.10;99.90;;;;;;5139044;27;20174;-82
2023/09/25 12:56:58;;;;;;;5.73;2.33;;;24.00;99.90;;;;;;5144701;27;20170;-81